createdAt,value
2022-10-10T00:01:35.596Z,8.75
2022-10-10T00:04:03.198Z,9.80
2022-10-10T00:06:33.018Z,7.95
2022-10-10T00:09:00.476Z,8.88
2022-10-10T00:11:27.279Z,9.20
2022-10-10T00:13:54.127Z,7.97
2022-10-10T00:16:21.095Z,9.17
2022-10-10T00:18:48.093Z,12.32
2022-10-10T00:21:14.911Z,7.43
2022-10-10T00:23:41.864Z,7.90
2022-10-10T00:26:09.534Z,9.40
2022-10-10T00:28:37.816Z,8.45
2022-10-10T00:31:09.034Z,10.30
2022-10-10T00:33:36.723Z,9.07
2022-10-10T00:36:03.747Z,11.32
2022-10-10T00:38:30.477Z,10.97
2022-10-10T00:40:57.283Z,9.60
2022-10-10T00:43:26.299Z,8.60
2022-10-10T00:45:53.418Z,10.00
2022-10-10T00:48:26.068Z,8.77
2022-10-10T00:50:57.664Z,7.95
2022-10-10T00:53:30.201Z,12.77
2022-10-10T00:58:48.340Z,10.77
2022-10-10T01:04:03.110Z,7.70
2022-10-10T01:09:17.003Z,10.60
2022-10-10T01:15:01.367Z,9.40
2022-10-10T01:17:47.639Z,10.93
2022-10-10T01:20:37.751Z,8.02
2022-10-10T01:23:48.528Z,9.73
2022-10-10T01:26:33.582Z,9.18
2022-10-10T01:29:19.389Z,10.30
2022-10-10T01:34:53.075Z,8.85
2022-10-10T01:37:43.047Z,10.00
2022-10-10T01:40:25.497Z,11.30
2022-10-10T01:42:57.596Z,8.90
2022-10-10T01:45:25.376Z,10.87
2022-10-10T01:47:56.008Z,10.98
2022-10-10T01:50:25.540Z,8.57
2022-10-10T01:53:13.690Z,7.25
2022-10-10T01:55:59.039Z,9.65
2022-10-10T01:58:50.505Z,8.48
2022-10-10T02:04:23.935Z,7.40
2022-10-10T02:07:00.303Z,9.95
2022-10-10T02:09:34.606Z,8.65
2022-10-10T02:12:02.745Z,8.43
2022-10-10T02:14:41.602Z,9.30
2022-10-10T02:19:59.470Z,8.50
2022-10-10T02:25:15.689Z,8.25
2022-10-10T02:27:54.720Z,8.63
2022-10-10T02:30:21.640Z,8.50
2022-10-10T02:32:52.940Z,8.70
2022-10-10T02:35:24.909Z,10.38
2022-10-10T02:37:53.157Z,8.13
2022-10-10T02:40:27.369Z,10.98
2022-10-10T02:42:56.236Z,9.73
2022-10-10T02:45:23.663Z,7.63
2022-10-10T02:47:51.318Z,9.68
2022-10-10T02:50:18.280Z,10.73
2022-10-10T02:52:45.085Z,10.05
2022-10-10T02:55:11.781Z,8.35
2022-10-10T02:57:38.511Z,10.48
2022-10-10T03:00:06.537Z,9.50
2022-10-10T03:02:33.592Z,11.57
2022-10-10T03:05:00.345Z,8.45
2022-10-10T03:07:27.081Z,10.15
2022-10-10T03:09:53.902Z,10.05
2022-10-10T03:12:20.674Z,7.88
2022-10-10T03:14:47.396Z,9.07
2022-10-10T03:17:14.452Z,8.68
2022-10-10T03:19:41.177Z,11.05
2022-10-10T03:22:07.918Z,8.55
2022-10-10T03:27:21.398Z,9.55
2022-10-10T03:32:14.762Z,9.30
2022-10-10T03:34:41.505Z,9.17
2022-10-10T03:39:54.912Z,7.60
2022-10-10T03:45:08.623Z,8.53
2022-10-10T03:50:22.031Z,9.15
2022-10-10T03:52:49.067Z,10.93
2022-10-10T03:55:16.081Z,11.10
2022-10-10T03:57:42.799Z,10.60
2022-10-10T04:00:10.386Z,9.60
2022-10-10T04:02:37.344Z,9.45
2022-10-10T04:05:04.747Z,8.70
2022-10-10T04:07:32.029Z,8.43
2022-10-10T04:09:58.751Z,11.02
2022-10-10T04:12:25.891Z,11.30
2022-10-10T04:14:52.634Z,8.02
2022-10-10T04:17:19.316Z,9.80
2022-10-10T04:19:46.072Z,11.82
2022-10-10T04:22:12.774Z,11.40
2022-10-10T04:24:39.488Z,11.18
2022-10-10T04:27:06.227Z,9.77
2022-10-10T04:29:33.012Z,8.20
2022-10-10T04:31:59.707Z,10.18
2022-10-10T04:34:26.555Z,10.27
2022-10-10T04:36:53.269Z,8.80
2022-10-10T04:42:06.771Z,11.80
2022-10-10T04:47:20.142Z,9.80
2022-10-10T04:49:46.965Z,8.90
2022-10-10T04:52:13.749Z,10.57
2022-10-10T04:54:40.515Z,11.48
2022-10-10T04:57:07.268Z,10.50
2022-10-10T04:59:34.057Z,9.88
2022-10-10T05:02:02.090Z,15.32
2022-10-10T05:04:29.006Z,10.93
2022-10-10T05:06:55.790Z,9.20
2022-10-10T05:09:22.670Z,8.75
2022-10-10T05:11:49.401Z,12.90
2022-10-10T05:17:02.771Z,10.50
2022-10-10T05:22:16.111Z,10.90
2022-10-10T05:27:29.738Z,7.72
2022-10-10T05:29:56.494Z,8.23
2022-10-10T05:32:12.408Z,0
2022-10-10T05:32:23.933Z,9.70
2022-10-10T05:34:50.669Z,9.93
2022-10-10T05:37:17.444Z,12.43
2022-10-10T05:39:44.128Z,11.57
2022-10-10T05:42:10.969Z,10.45
2022-10-10T05:44:37.693Z,9.43
2022-10-10T05:47:04.437Z,9.40
2022-10-10T05:49:31.181Z,9.60
2022-10-10T05:51:57.926Z,11.77
2022-10-10T05:54:26.090Z,12.23
2022-10-10T05:56:52.818Z,9.05
2022-10-10T05:59:19.519Z,9.70
2022-10-10T06:01:46.222Z,10.82
2022-10-10T06:04:12.969Z,9.13
2022-10-10T06:06:39.677Z,9.90
2022-10-10T06:08:14.992Z,0
2022-10-10T06:09:06.476Z,9.48
2022-10-10T06:11:33.411Z,11.05
2022-10-10T06:14:00.180Z,11.80
2022-10-10T06:16:27.596Z,9.20
2022-10-10T06:18:54.742Z,9.90
2022-10-10T06:21:21.452Z,10.93
2022-10-10T06:23:48.457Z,9.65
2022-10-10T06:26:15.465Z,10.65
2022-10-10T06:28:42.237Z,9.55
2022-10-10T06:31:14.484Z,8.93
2022-10-10T06:33:45.572Z,9.75
2022-10-10T06:36:14.225Z,8.45
2022-10-10T06:38:44.055Z,11.38
2022-10-10T06:41:11.215Z,9.02
2022-10-10T06:43:38.144Z,11.75
2022-10-10T06:46:05.989Z,8.55
2022-10-10T06:48:32.886Z,11.25
2022-10-10T06:51:01.795Z,9.83
2022-10-10T06:56:15.909Z,8.88
2022-10-10T07:01:29.400Z,10.50
2022-10-10T07:03:56.428Z,11.70
2022-10-10T07:06:23.176Z,8.73
2022-10-10T07:08:49.953Z,10.30
2022-10-10T07:11:16.677Z,10.10
2022-10-10T07:13:43.372Z,9.50
2022-10-10T07:16:10.693Z,10.82
2022-10-10T07:18:37.654Z,11.90
2022-10-10T07:23:51.977Z,9.70
2022-10-10T07:29:06.011Z,8.47
2022-10-10T07:34:19.822Z,7.72
2022-10-10T07:36:46.564Z,10.07
2022-10-10T07:39:16.987Z,8.02
2022-10-10T07:41:43.933Z,10.80
2022-10-10T07:46:57.292Z,8.40
2022-10-10T07:49:23.997Z,9.45
2022-10-10T07:51:50.693Z,11.98
2022-10-10T07:54:17.449Z,9.40
2022-10-10T07:56:44.192Z,8.10
2022-10-10T07:57:57.100Z,0
2022-10-10T07:59:10.932Z,7.88
2022-10-10T08:01:37.747Z,8.80
2022-10-10T08:04:04.489Z,8.77
2022-10-10T08:09:17.866Z,7.77
2022-10-10T08:14:31.272Z,9.23
2022-10-10T08:16:58.050Z,9.13
2022-10-10T08:19:24.783Z,9.40
2022-10-10T08:21:51.539Z,8.75
2022-10-10T08:24:18.277Z,10.20
2022-10-10T08:26:45.011Z,9.25
2022-10-10T08:29:11.735Z,10.48
2022-10-10T08:31:38.507Z,9.95
2022-10-10T08:36:51.995Z,10.85
2022-10-10T08:42:05.658Z,10.60
2022-10-10T08:44:53.398Z,10.17
2022-10-10T08:50:59.418Z,6.82
2022-10-10T08:53:40.829Z,9.80
2022-10-10T08:59:17.581Z,10.52
2022-10-10T09:02:20.116Z,7.90
2022-10-10T09:03:04.940Z,0
2022-10-10T09:04:31.159Z,10.25
2022-10-10T09:10:23.363Z,8.45
2022-10-10T09:13:05.083Z,8.10
2022-10-10T09:15:41.683Z,10.93
2022-10-10T09:18:30.140Z,8.07
2022-10-10T09:21:05.674Z,10.25
2022-10-10T09:23:43.352Z,11.57
2022-10-10T09:26:13.905Z,9.90
2022-10-10T09:28:46.597Z,8.38
2022-10-10T09:31:22.781Z,9.55
2022-10-10T09:33:59.846Z,10.18
2022-10-10T09:36:31.468Z,8.50
2022-10-10T09:39:03.902Z,8.13
2022-10-10T09:41:43.796Z,7.90
2022-10-10T09:44:12.934Z,9.00
2022-10-10T09:46:39.945Z,10.20
2022-10-10T09:49:07.347Z,8.60
2022-10-10T09:51:34.578Z,9.25
2022-10-10T09:56:54.980Z,8.55
2022-10-10T09:59:41.870Z,9.82
2022-10-10T10:02:19.805Z,9.65
2022-10-10T10:04:47.969Z,6.82
2022-10-10T10:07:34.279Z,13.27
2022-10-10T10:10:22.679Z,8.40
2022-10-10T10:12:50.593Z,8.63
2022-10-10T10:18:17.910Z,10.43
2022-10-10T10:20:49.889Z,9.00
2022-10-10T10:23:25.474Z,10.95
2022-10-10T10:26:25.455Z,11.85
2022-10-10T10:28:53.995Z,6.65
2022-10-10T10:31:31.045Z,11.52
2022-10-10T10:34:03.842Z,11.57
2022-10-10T10:37:02.083Z,10.38
2022-10-10T10:42:35.445Z,8.57
2022-10-10T10:45:22.920Z,8.18
2022-10-10T10:48:11.984Z,8.68
2022-10-10T10:50:48.604Z,9.80
2022-10-10T10:53:15.322Z,8.25
2022-10-10T10:55:45.680Z,9.52
2022-10-10T11:01:55.804Z,9.10
2022-10-10T11:05:19.251Z,8.45
2022-10-10T11:05:42.384Z,0
2022-10-10T11:07:23.302Z,0
2022-10-10T11:07:38.468Z,8.20
2022-10-10T11:09:53.465Z,0
2022-10-10T11:10:32.346Z,9.20
2022-10-10T11:13:26.816Z,10.20
2022-10-10T11:16:30.266Z,11.13
2022-10-10T11:16:51.712Z,0
2022-10-10T11:19:18.454Z,7.63
2022-10-10T11:21:52.523Z,10.80
2022-10-10T11:24:24.922Z,7.50
2022-10-10T11:26:57.338Z,7.68
2022-10-10T11:29:46.293Z,8.45
2022-10-10T11:35:29.738Z,7.13
2022-10-10T11:38:25.636Z,10.38
2022-10-10T11:43:56.206Z,7.25
2022-10-10T11:46:40.663Z,7.20
2022-10-10T11:49:13.628Z,8.53
2022-10-10T11:52:09.416Z,9.18
2022-10-10T11:57:47.342Z,6.70
2022-10-10T12:00:16.711Z,9.27
2022-10-10T12:02:45.703Z,8.15
2022-10-10T12:05:28.226Z,9.40
2022-10-10T12:07:57.908Z,7.60
2022-10-10T12:10:31.123Z,11.02
2022-10-10T12:13:02.944Z,7.43
2022-10-10T12:15:41.159Z,6.70
2022-10-10T12:18:25.643Z,9.88
2022-10-10T12:24:04.142Z,8.90
2022-10-10T12:26:52.528Z,7.25
2022-10-10T12:29:56.090Z,8.25
2022-10-10T12:32:40.020Z,9.38
2022-10-10T12:35:34.271Z,8.93
2022-10-10T12:41:17.410Z,8.82
2022-10-10T12:43:50.697Z,8.57
2022-10-10T12:46:32.244Z,8.30
2022-10-10T12:48:08.920Z,0
2022-10-10T12:49:02.330Z,9.70
2022-10-10T12:51:31.762Z,9.32
2022-10-10T12:54:01.370Z,8.43
2022-10-10T12:56:44.322Z,10.07
2022-10-10T12:59:24.165Z,9.32
2022-10-10T13:01:58.614Z,8.40
2022-10-10T13:04:26.299Z,10.02
2022-10-10T13:06:56.755Z,7.50
2022-10-10T13:09:29.981Z,10.77
2022-10-10T13:12:01.968Z,7.22
2022-10-10T13:14:48.969Z,7.22
2022-10-10T13:17:37.026Z,11.20
2022-10-10T13:20:07.707Z,11.65
2022-10-10T13:22:36.838Z,8.85
2022-10-10T13:25:09.955Z,10.15
2022-10-10T13:27:36.729Z,6.90
2022-10-10T13:30:05.666Z,8.55
2022-10-10T13:32:35.030Z,9.57
2022-10-10T13:35:12.963Z,7.03
2022-10-10T13:37:44.200Z,9.75
2022-10-10T13:40:15.936Z,8.60
2022-10-10T13:42:43.345Z,7.20
2022-10-10T13:45:30.208Z,9.27
2022-10-10T13:48:03.361Z,7.38
2022-10-10T13:50:36.146Z,10.10
2022-10-10T13:53:22.035Z,9.80
2022-10-10T13:55:49.087Z,9.60
2022-10-10T13:58:16.613Z,7.57
2022-10-10T14:00:43.747Z,9.68
2022-10-10T14:03:20.036Z,8.55
2022-10-10T14:05:47.151Z,8.07
2022-10-10T14:08:20.330Z,10.67
2022-10-10T14:11:07.772Z,8.57
2022-10-10T14:13:38.130Z,9.43
2022-10-10T14:16:17.103Z,6.90
2022-10-10T14:18:44.656Z,8.80
2022-10-10T14:21:11.872Z,8.15
2022-10-10T14:23:39.364Z,10.85
2022-10-10T14:26:12.380Z,9.37
2022-10-10T14:28:39.698Z,7.85
2022-10-10T14:31:07.104Z,11.85
2022-10-10T14:33:33.839Z,8.32
2022-10-10T14:36:01.065Z,11.10
2022-10-10T14:38:28.082Z,8.27
2022-10-10T14:40:55.289Z,7.70
2022-10-10T14:43:22.044Z,14.93
2022-10-10T14:45:53.483Z,7.60
2022-10-10T14:48:20.467Z,8.68
2022-10-10T14:50:49.049Z,8.48
2022-10-10T14:53:16.403Z,9.15
2022-10-10T14:55:43.731Z,8.90
2022-10-10T14:58:19.085Z,15.45
2022-10-10T15:00:46.031Z,10.65
2022-10-10T15:03:13.387Z,11.13
2022-10-10T15:05:40.806Z,9.45
2022-10-10T15:08:08.242Z,8.95
2022-10-10T15:10:35.498Z,11.63
2022-10-10T15:13:03.065Z,9.63
2022-10-10T15:15:30.215Z,13.05
2022-10-10T15:17:58.016Z,9.90
2022-10-10T15:20:24.950Z,9.02
2022-10-10T15:22:51.791Z,9.93
2022-10-10T15:25:18.508Z,11.70
2022-10-10T15:27:45.212Z,10.43
2022-10-10T15:30:12.251Z,7.88
2022-10-10T15:32:41.192Z,12.63
2022-10-10T15:35:12.797Z,11.38
2022-10-10T15:37:39.597Z,10.37
2022-10-10T15:40:06.773Z,8.10
2022-10-10T15:42:33.529Z,11.30
2022-10-10T15:45:00.229Z,14.85
2022-10-10T15:47:27.001Z,12.25
2022-10-10T15:49:53.746Z,10.25
2022-10-10T15:52:20.779Z,10.23
2022-10-10T15:54:50.746Z,11.20
2022-10-10T15:57:18.793Z,12.85
2022-10-10T15:59:22.853Z,0
2022-10-10T15:59:46.302Z,8.95
2022-10-10T16:02:13.388Z,9.18
2022-10-10T16:07:29.790Z,10.00
2022-10-10T16:07:48.648Z,0
2022-10-10T16:09:30.976Z,0
2022-10-10T16:09:58.149Z,10.80
2022-10-10T16:12:24.859Z,10.60
2022-10-10T16:17:38.250Z,10.77
2022-10-10T16:22:52.126Z,11.48
2022-10-10T16:25:23.105Z,16.50
2022-10-10T16:27:50.172Z,9.33
2022-10-10T16:30:16.950Z,7.75
2022-10-10T16:32:43.706Z,8.97
2022-10-10T16:35:11.256Z,10.30
2022-10-10T16:37:39.034Z,10.93
2022-10-10T16:40:06.719Z,10.77
2022-10-10T16:41:50.958Z,0
2022-10-10T16:42:34.312Z,10.05
2022-10-10T16:47:47.708Z,10.55
2022-10-10T16:50:14.441Z,10.33
2022-10-10T16:52:41.165Z,12.20
2022-10-10T16:55:08.935Z,12.18
2022-10-10T16:57:36.796Z,14.52
2022-10-10T17:00:05.909Z,12.25
2022-10-10T17:02:32.689Z,10.93
2022-10-10T17:04:59.419Z,9.25
2022-10-10T17:07:26.889Z,10.18
2022-10-10T17:09:53.601Z,12.10
2022-10-10T17:12:20.338Z,10.73
2022-10-10T17:14:47.038Z,9.65
2022-10-10T17:17:14.051Z,14.30
2022-10-10T17:19:41.014Z,10.07
2022-10-10T17:22:07.738Z,8.15
2022-10-10T17:24:35.340Z,10.57
2022-10-10T17:27:02.205Z,13.38
2022-10-10T17:29:29.037Z,11.00
2022-10-10T17:31:55.800Z,8.55
2022-10-10T17:37:09.316Z,8.23
2022-10-10T17:38:42.310Z,0
2022-10-10T17:39:36.144Z,10.37
2022-10-10T17:42:03.212Z,11.63
2022-10-10T17:44:30.116Z,8.00
2022-10-10T17:46:42.687Z,0
2022-10-10T17:46:57.179Z,9.47
2022-10-10T17:49:24.048Z,8.80
2022-10-10T17:51:50.865Z,11.77
2022-10-10T17:54:17.611Z,14.70
2022-10-10T17:56:44.517Z,8.77
2022-10-10T17:59:12.250Z,9.50
2022-10-10T18:01:39.751Z,12.95
2022-10-10T18:04:06.895Z,9.80
2022-10-10T18:06:35.920Z,13.48
2022-10-10T18:09:02.668Z,10.38
2022-10-10T18:11:31.312Z,10.90
2022-10-10T18:13:58.651Z,11.45
2022-10-10T18:16:25.860Z,11.65
2022-10-10T18:18:53.010Z,13.35
2022-10-10T18:21:21.995Z,17.25
2022-10-10T18:23:49.480Z,10.27
2022-10-10T18:26:19.044Z,10.10
2022-10-10T18:28:45.943Z,10.70
2022-10-10T18:31:21.323Z,10.70
2022-10-10T18:33:48.210Z,11.40
2022-10-10T18:39:10.900Z,16.20
2022-10-10T18:39:32.999Z,0
2022-10-10T18:41:37.901Z,15.32
2022-10-10T18:44:07.343Z,13.20
2022-10-10T18:46:34.861Z,11.85
2022-10-10T18:51:50.730Z,14.60
2022-10-10T18:54:18.465Z,14.30
2022-10-10T18:56:46.757Z,12.05
2022-10-10T18:59:19.279Z,12.85
2022-10-10T19:04:32.644Z,12.60
2022-10-10T19:06:59.383Z,12.93
2022-10-10T19:09:26.209Z,17.52
2022-10-10T19:11:52.968Z,15.70
2022-10-10T19:14:20.327Z,13.45
2022-10-10T19:16:47.875Z,10.25
2022-10-10T19:19:17.885Z,18.10
2022-10-10T19:24:33.518Z,8.02
2022-10-10T19:29:49.570Z,6.60
2022-10-10T19:32:16.302Z,7.05
2022-10-10T19:34:43.358Z,6.93
2022-10-10T19:37:10.073Z,5.90
2022-10-10T19:39:36.819Z,10.75
2022-10-10T19:42:03.663Z,5.40
2022-10-10T19:44:30.379Z,10.18
2022-10-10T19:46:57.078Z,6.47
2022-10-10T19:49:23.789Z,5.07
2022-10-10T19:51:53.080Z,4.25
2022-10-10T19:54:20.140Z,7.00
2022-10-10T19:56:46.871Z,5.45
2022-10-10T19:59:13.583Z,7.10
2022-10-10T20:01:40.382Z,6.65
2022-10-10T20:04:07.147Z,6.60
2022-10-10T20:06:33.875Z,11.10
2022-10-10T20:09:00.593Z,6.05
2022-10-10T20:11:27.329Z,9.50
2022-10-10T20:13:54.174Z,12.68
2022-10-10T20:16:22.143Z,6.57
2022-10-10T20:18:48.891Z,12.48
2022-10-10T20:21:18.747Z,8.60
2022-10-10T20:23:46.739Z,9.85
2022-10-10T20:26:19.925Z,10.10
2022-10-10T20:28:47.419Z,11.50
2022-10-10T20:31:20.360Z,12.83
2022-10-10T20:33:48.961Z,11.05
2022-10-10T20:36:17.230Z,9.30
2022-10-10T20:41:32.729Z,10.95
2022-10-10T20:46:48.628Z,10.23
2022-10-10T20:52:05.914Z,14.70
2022-10-10T20:57:19.657Z,14.55
2022-10-10T20:59:46.368Z,11.38
2022-10-10T21:02:17.178Z,14.13
2022-10-10T21:04:46.156Z,11.80
2022-10-10T21:07:12.891Z,15.40
2022-10-10T21:09:39.727Z,13.10
2022-10-10T21:12:06.645Z,12.80
2022-10-10T21:14:33.388Z,13.90
2022-10-10T21:17:00.111Z,14.43
2022-10-10T21:19:00.293Z,0
2022-10-10T21:19:26.837Z,13.52
2022-10-10T21:21:53.534Z,12.43
2022-10-10T21:27:06.876Z,12.48
2022-10-10T21:32:20.342Z,15.30
2022-10-10T21:37:34.667Z,14.70
2022-10-10T21:42:48.007Z,12.90
2022-10-10T21:45:14.811Z,16.45
2022-10-10T21:47:41.986Z,12.82
2022-10-10T21:50:09.081Z,13.70
2022-10-10T21:52:35.805Z,13.52
2022-10-10T21:55:02.545Z,14.90
2022-10-10T21:57:29.273Z,12.10
2022-10-10T21:59:55.982Z,16.13
2022-10-10T22:02:22.702Z,14.27
2022-10-10T22:04:52.383Z,13.30
2022-10-10T22:07:19.230Z,14.20
2022-10-10T22:12:32.769Z,16.73
2022-10-10T22:14:59.916Z,15.20
2022-10-10T22:17:27.060Z,15.23
2022-10-10T22:19:53.809Z,21.05
2022-10-10T22:21:33.795Z,0
2022-10-10T22:22:20.732Z,16.55
2022-10-10T22:27:34.249Z,18.63
2022-10-10T22:30:00.991Z,22.00
2022-10-10T22:32:27.879Z,18.63
2022-10-10T22:34:54.622Z,17.38
2022-10-10T22:37:21.346Z,21.37
2022-10-10T22:39:48.075Z,25.58
2022-10-10T22:42:14.836Z,21.90
2022-10-10T22:44:41.566Z,18.25
2022-10-10T22:47:08.676Z,26.33
2022-10-10T22:49:35.384Z,19.67
2022-10-10T22:52:02.115Z,20.83
2022-10-10T22:57:15.493Z,30.27
2022-10-10T23:02:28.957Z,28.27
2022-10-10T23:07:42.350Z,34.00
2022-10-10T23:10:09.487Z,39.53
2022-10-10T23:12:36.312Z,35.35
2022-10-10T23:15:03.218Z,30.00
2022-10-10T23:17:29.939Z,32.37
2022-10-10T23:19:56.680Z,29.50
2022-10-10T23:22:23.554Z,31.83
2022-10-10T23:24:50.259Z,31.60
2022-10-10T23:27:17.297Z,31.33
2022-10-10T23:29:44.069Z,29.38
2022-10-10T23:32:10.838Z,27.83
2022-10-10T23:37:24.534Z,30.17
2022-10-10T23:42:37.938Z,29.25
2022-10-10T23:47:51.658Z,26.88
2022-10-10T23:50:18.436Z,27.87
2022-10-10T23:52:45.217Z,27.50
2022-10-10T23:55:11.968Z,25.38
2022-10-10T23:57:38.687Z,25.80
